Terminal Aerodrome Forecast
Issued by NWS

Home | Current Version | Previous Version | Text Only | Print | Product List | Glossary On
Versions: 1 2 3 4 5 6 7 8 9 10 11 12 13 14
540
FTUS45 KRIW 231120
TAFCPR
TAF
KCPR 231120Z 2312/2412 VRB04KT P6SM VCFG SCT002 BKN050
     FM231330 01007KT P6SM VCSH SCT025 BKN050
     FM231800 01012G20KT P6SM -RA OVC012
     FM240000 36011KT 2SM -SN OVC012
     FM240600 36006KT 5SM -SN OVC016
     FM240900 35006KT P6SM OVC020=

USA.gov is the U.S. government's official web portal to all federal, state and local government web resources and services.